Time;durP1;ratioP1;P1;durP2;ratioP2;P2;SDS_P1;SDS_P2;PMS_P1;PMS_P2;Temp;Humidity;BMP_temperature;BMP_pressure;BME280_temperature;BME280_humidity;BME280_pressure;Samples;Min_cycle;Max_cycle;Signal;HPM_P1;HPM_P2
2022/07/02 00:00:03;;;;;;;1.45;1.30;;;23.80;53.00;;;;;;5007507;28;20516;-61
2022/07/02 00:02:34;;;;;;;2.97;1.33;;;23.80;53.00;;;;;;5009559;28;20591;-61
2022/07/02 00:05:05;;;;;;;1.27;1.02;;;23.80;53.00;;;;;;5010092;28;20045;-61
2022/07/02 00:07:31;;;;;;;1.52;1.23;;;23.80;53.00;;;;;;5010370;28;20386;-61
2022/07/02 00:09:58;;;;;;;1.20;1.10;;;23.80;53.00;;;;;;5008083;28;20177;-60
2022/07/02 00:12:27;;;;;;;2.33;1.30;;;23.80;53.00;;;;;;5011595;28;20900;-61
2022/07/02 00:15:00;;;;;;;0.95;0.82;;;23.80;53.00;;;;;;5008209;28;20408;-61
2022/07/02 00:17:26;;;;;;;0.88;0.85;;;23.80;53.00;;;;;;5003929;28;20061;-61
2022/07/02 00:19:53;;;;;;;1.85;1.17;;;23.80;53.00;;;;;;5007348;28;20046;-61
2022/07/02 00:22:20;;;;;;;1.48;1.10;;;23.80;53.00;;;;;;5008901;28;20037;-61
2022/07/02 00:24:46;;;;;;;1.30;1.00;;;23.80;52.90;;;;;;5006465;28;20042;-61
2022/07/02 00:27:14;;;;;;;1.52;1.00;;;23.80;52.90;;;;;;5007547;28;20037;-62
2022/07/02 00:29:57;;;;;;;2.92;0.90;;;23.80;52.90;;;;;;5006266;28;20148;-61
2022/07/02 00:32:31;;;;;;;1.27;1.10;;;23.80;52.80;;;;;;5007498;28;20103;-61
2022/07/02 00:34:58;;;;;;;2.50;1.10;;;23.80;52.90;;;;;;5008590;28;20073;-61
2022/07/02 00:37:26;;;;;;;2.15;1.10;;;23.70;52.90;;;;;;5007645;28;20067;-61
2022/07/02 00:39:51;;;;;;;1.33;0.90;;;23.80;52.90;;;;;;5005516;28;20034;-60
2022/07/02 00:42:19;;;;;;;1.23;0.95;;;23.70;52.80;;;;;;5008322;28;20048;-61
2022/07/02 00:44:47;;;;;;;1.50;1.10;;;23.80;52.90;;;;;;5009316;28;20050;-62
2022/07/02 00:47:14;;;;;;;1.83;1.15;;;23.70;52.90;;;;;;5009490;28;20077;-61
2022/07/02 00:49:39;;;;;;;1.55;1.08;;;23.70;52.80;;;;;;5012973;28;20132;-61
2022/07/02 00:52:07;;;;;;;2.13;1.30;;;23.70;52.80;;;;;;5012514;28;20497;-61
2022/07/02 00:54:33;;;;;;;2.85;1.13;;;23.70;52.90;;;;;;5012710;28;20073;-61
2022/07/02 00:56:58;;;;;;;1.10;0.95;;;23.70;53.60;;;;;;5012384;28;20073;-60
2022/07/02 00:59:25;;;;;;;1.42;1.05;;;23.70;52.80;;;;;;5009830;28;20061;-61
2022/07/02 01:01:51;;;;;;;0.90;0.90;;;23.70;52.80;;;;;;5013347;28;20106;-61
2022/07/02 01:04:18;;;;;;;1.08;0.90;;;23.70;52.80;;;;;;5014362;28;20041;-61
2022/07/02 01:06:44;;;;;;;1.20;0.90;;;23.70;52.80;;;;;;5010285;28;20099;-62
2022/07/02 01:11:59;;;;;;;1.40;0.95;;;23.70;52.80;;;;;;5010579;28;20045;-61
2022/07/02 01:14:26;;;;;;;1.60;1.00;;;23.70;52.80;;;;;;4992708;28;20048;-61
2022/07/02 01:16:51;;;;;;;1.98;0.88;;;23.70;52.80;;;;;;5013036;28;20034;-61
2022/07/02 01:19:20;;;;;;;1.50;0.70;;;23.70;52.80;;;;;;5011173;28;20045;-61
2022/07/02 01:22:15;;;;;;;1.20;0.88;;;23.70;52.80;;;;;;5011177;28;20038;-61
2022/07/02 01:24:42;;;;;;;0.85;0.80;;;23.70;52.80;;;;;;5008628;28;20465;-61
2022/07/02 01:27:08;;;;;;;1.17;0.88;;;23.60;52.70;;;;;;5010230;28;20060;-61
2022/07/02 01:29:34;;;;;;;1.38;1.02;;;23.70;52.80;;;;;;4991916;28;20482;-61
2022/07/02 01:31:59;;;;;;;1.92;1.10;;;23.60;52.70;;;;;;5011915;28;20076;-61
2022/07/02 01:34:25;;;;;;;1.25;1.15;;;23.70;52.80;;;;;;5011200;28;20073;-62
2022/07/02 01:36:51;;;;;;;1.98;0.90;;;23.60;52.70;;;;;;5011911;28;20489;-61
2022/07/02 01:39:23;;;;;;;1.40;0.77;;;23.60;52.70;;;;;;5008983;28;21241;-61
2022/07/02 01:41:49;;;;;;;1.35;1.00;;;23.60;52.70;;;;;;5007959;28;20449;-62
2022/07/02 01:44:15;;;;;;;1.13;1.00;;;23.60;52.70;;;;;;5010664;28;20046;-61
2022/07/02 01:46:44;;;;;;;3.10;1.02;;;23.60;52.70;;;;;;5009449;28;20649;-61
2022/07/02 01:49:10;;;;;;;1.05;0.95;;;23.60;52.70;;;;;;5009916;28;20079;-61
2022/07/02 01:51:35;;;;;;;1.20;0.95;;;23.60;52.70;;;;;;5008806;28;20050;-61
2022/07/02 01:54:01;;;;;;;2.17;1.15;;;23.60;52.70;;;;;;5010912;28;20034;-61
2022/07/02 01:56:31;;;;;;;2.00;0.90;;;23.60;52.70;;;;;;5007913;28;20472;-61
2022/07/02 01:58:57;;;;;;;2.08;1.08;;;23.60;52.70;;;;;;5007450;28;21693;-61
2022/07/02 02:01:22;;;;;;;1.08;0.88;;;23.60;52.70;;;;;;5008272;28;20048;-61
2022/07/02 02:03:48;;;;;;;1.45;1.00;;;23.60;52.70;;;;;;5006747;28;20046;-62
2022/07/02 02:06:14;;;;;;;1.33;0.80;;;23.60;52.70;;;;;;5008927;28;20475;-62
2022/07/02 02:08:39;;;;;;;1.67;1.10;;;23.60;52.70;;;;;;5009989;28;20140;-61
2022/07/02 02:11:05;;;;;;;1.67;0.90;;;23.60;52.70;;;;;;5006226;28;20751;-62
2022/07/02 02:13:30;;;;;;;2.65;1.00;;;23.60;52.70;;;;;;5009917;28;20042;-61
2022/07/02 02:15:56;;;;;;;1.60;1.00;;;23.60;52.60;;;;;;5010235;28;20045;-61
2022/07/02 02:18:22;;;;;;;1.73;1.00;;;23.60;52.60;;;;;;5008314;28;20029;-61
2022/07/02 02:20:47;;;;;;;1.20;1.10;;;23.60;52.60;;;;;;5010351;28;20033;-61
2022/07/02 02:23:13;;;;;;;2.10;1.08;;;23.60;52.60;;;;;;5010485;28;20049;-61
2022/07/02 02:25:39;;;;;;;2.25;1.13;;;23.60;52.60;;;;;;5009184;28;20060;-61
2022/07/02 02:28:05;;;;;;;1.42;0.80;;;23.60;52.60;;;;;;5011260;28;20034;-60
2022/07/02 02:30:31;;;;;;;0.70;0.65;;;23.60;52.60;;;;;;5009346;28;20101;-61
2022/07/02 02:32:56;;;;;;;1.52;0.95;;;23.60;52.60;;;;;;5010274;28;20490;-61
2022/07/02 02:35:22;;;;;;;0.80;0.80;;;23.60;52.60;;;;;;5011798;28;20740;-61
2022/07/02 02:37:48;;;;;;;1.00;0.90;;;23.60;52.60;;;;;;5009050;28;20121;-61
2022/07/02 02:40:13;;;;;;;1.70;0.93;;;23.60;52.60;;;;;;5010059;28;20068;-62
2022/07/02 02:42:39;;;;;;;1.17;0.80;;;23.60;52.60;;;;;;5011422;28;20486;-61
2022/07/02 02:45:05;;;;;;;0.93;0.77;;;23.60;52.60;;;;;;5009379;28;20053;-61
2022/07/02 02:47:31;;;;;;;1.00;0.88;;;23.60;52.60;;;;;;5007741;28;20054;-61
2022/07/02 02:49:56;;;;;;;2.28;0.90;;;23.60;52.60;;;;;;5004245;28;20595;-62
2022/07/02 02:52:22;;;;;;;3.67;1.30;;;23.60;52.60;;;;;;5005632;28;20038;-62
2022/07/02 02:54:48;;;;;;;1.80;1.15;;;23.50;52.50;;;;;;5011164;28;20126;-61
2022/07/02 02:57:14;;;;;;;1.65;1.00;;;23.50;52.50;;;;;;5010367;28;20068;-61
2022/07/02 02:59:40;;;;;;;1.45;1.08;;;23.60;52.60;;;;;;5008286;28;20105;-62
2022/07/02 03:02:05;;;;;;;2.15;1.02;;;23.60;52.50;;;;;;5008286;28;20033;-60
2022/07/02 03:04:31;;;;;;;1.83;1.00;;;23.50;52.50;;;;;;5011446;28;20552;-61
2022/07/02 03:06:57;;;;;;;1.52;0.98;;;23.50;52.50;;;;;;5011794;28;20546;-61
2022/07/02 03:09:22;;;;;;;2.58;1.00;;;23.50;52.40;;;;;;5007316;28;20120;-61
2022/07/02 03:11:48;;;;;;;1.60;1.10;;;23.60;52.50;;;;;;5009142;28;20064;-62
2022/07/02 03:14:14;;;;;;;1.13;0.80;;;23.60;52.50;;;;;;5006560;28;20080;-61
2022/07/02 03:16:39;;;;;;;1.65;0.95;;;23.50;52.50;;;;;;5010993;28;20037;-61
2022/07/02 03:19:05;;;;;;;1.95;0.82;;;23.50;52.50;;;;;;5009329;28;20061;-61
2022/07/02 03:21:30;;;;;;;1.40;0.90;;;23.50;52.40;;;;;;5008602;28;20053;-61
2022/07/02 03:23:56;;;;;;;1.23;0.90;;;23.50;52.40;;;;;;5009203;28;20079;-61
2022/07/02 03:26:22;;;;;;;2.22;1.08;;;23.50;52.40;;;;;;5009733;28;20148;-61
2022/07/02 03:28:47;;;;;;;1.23;1.13;;;23.50;52.40;;;;;;5008320;28;20056;-60
2022/07/02 03:31:13;;;;;;;1.05;0.80;;;23.50;52.40;;;;;;5005819;28;20049;-61
2022/07/02 03:33:38;;;;;;;1.92;0.98;;;23.50;52.40;;;;;;5010593;28;20494;-61
2022/07/02 03:36:05;;;;;;;1.52;1.00;;;23.50;52.40;;;;;;5008903;28;20496;-61
2022/07/02 03:38:30;;;;;;;1.17;1.08;;;23.50;52.40;;;;;;5008985;28;20409;-61
2022/07/02 03:40:56;;;;;;;1.20;0.90;;;23.50;52.40;;;;;;5007067;28;20046;-61
2022/07/02 03:43:22;;;;;;;0.80;0.80;;;23.50;52.30;;;;;;5007445;28;20050;-61
2022/07/02 03:45:47;;;;;;;1.08;0.98;;;23.50;52.40;;;;;;5008271;28;20061;-61
2022/07/02 03:48:13;;;;;;;2.10;0.90;;;23.50;52.30;;;;;;5008160;28;20038;-61
2022/07/02 03:50:40;;;;;;;2.15;0.95;;;23.50;52.40;;;;;;5010054;28;20374;-61
2022/07/02 03:53:06;;;;;;;2.17;0.70;;;23.50;52.30;;;;;;5010193;28;20037;-60
2022/07/02 03:55:32;;;;;;;1.35;0.82;;;23.50;52.30;;;;;;5003087;28;20041;-62
2022/07/02 03:57:58;;;;;;;1.70;0.93;;;23.50;52.60;;;;;;5008208;28;20375;-62
2022/07/02 04:00:24;;;;;;;1.30;0.80;;;23.50;52.80;;;;;;5010454;28;20033;-62
2022/07/02 04:02:49;;;;;;;1.10;0.90;;;23.50;52.90;;;;;;5007164;28;20042;-61
2022/07/02 04:05:15;;;;;;;1.65;1.10;;;23.50;53.10;;;;;;5011430;28;20034;-61
2022/07/02 04:07:41;;;;;;;2.58;1.00;;;23.60;53.20;;;;;;5007749;28;20059;-61
2022/07/02 04:10:07;;;;;;;1.55;0.80;;;23.60;53.30;;;;;;5010464;28;20052;-61
2022/07/02 04:12:33;;;;;;;2.30;1.00;;;23.60;53.30;;;;;;5009342;28;20033;-61
2022/07/02 04:14:59;;;;;;;2.40;0.90;;;23.60;53.30;;;;;;5008481;28;20375;-62
2022/07/02 04:17:25;;;;;;;2.67;1.20;;;23.60;53.30;;;;;;5006560;28;20091;-62
2022/07/02 04:19:50;;;;;;;2.75;1.20;;;23.60;53.40;;;;;;5006240;28;20053;-62
2022/07/02 04:22:16;;;;;;;1.48;0.93;;;23.60;53.50;;;;;;5008777;28;20132;-62
2022/07/02 04:24:42;;;;;;;2.75;1.10;;;23.60;53.40;;;;;;5011805;28;20156;-62
2022/07/02 04:27:07;;;;;;;2.90;1.20;;;23.60;53.50;;;;;;5009333;28;20033;-61
2022/07/02 04:29:33;;;;;;;4.00;1.00;;;23.60;53.60;;;;;;5013930;28;20048;-62
2022/07/02 04:31:59;;;;;;;1.17;1.05;;;23.60;53.70;;;;;;5011608;28;20038;-61
2022/07/02 04:34:24;;;;;;;2.95;0.88;;;23.60;54.40;;;;;;5015824;28;20502;-61
2022/07/02 04:36:50;;;;;;;1.70;0.98;;;23.60;53.70;;;;;;5012174;28;20074;-62
2022/07/02 04:39:15;;;;;;;3.15;0.90;;;23.60;53.60;;;;;;5014385;28;20113;-61
2022/07/02 04:41:41;;;;;;;3.13;0.90;;;23.60;53.60;;;;;;5013515;28;20107;-62
2022/07/02 04:44:07;;;;;;;3.25;1.30;;;23.60;53.60;;;;;;5010041;28;20120;-62
2022/07/02 04:46:33;;;;;;;1.63;0.95;;;23.60;53.60;;;;;;5009122;28;20054;-62
2022/07/02 04:48:59;;;;;;;2.05;1.10;;;23.60;53.50;;;;;;5009505;28;20056;-62
2022/07/02 04:51:25;;;;;;;3.55;1.10;;;23.60;53.60;;;;;;5009633;28;20437;-62
2022/07/02 04:53:50;;;;;;;2.70;1.33;;;23.60;53.60;;;;;;5010422;28;20045;-61
2022/07/02 04:56:19;;;;;;;3.83;0.90;;;23.60;53.50;;;;;;5010425;28;20346;-62
2022/07/02 04:58:44;;;;;;;2.72;1.15;;;23.60;53.60;;;;;;5009576;28;20042;-61
2022/07/02 05:01:10;;;;;;;5.68;1.30;;;23.60;53.60;;;;;;5012051;28;20049;-61
2022/07/02 05:03:35;;;;;;;2.33;1.10;;;23.60;53.50;;;;;;5009975;28;20564;-61
2022/07/02 05:06:01;;;;;;;3.78;1.27;;;23.60;53.50;;;;;;4984452;28;20719;-60
2022/07/02 05:08:27;;;;;;;2.00;0.90;;;23.60;53.60;;;;;;4989429;28;20037;-61
2022/07/02 05:10:53;;;;;;;1.45;1.02;;;23.60;54.00;;;;;;5007983;28;20584;-62
2022/07/02 05:13:20;;;;;;;1.48;1.10;;;23.60;53.70;;;;;;5011698;28;20387;-62
2022/07/02 05:15:46;;;;;;;2.53;1.00;;;23.60;53.70;;;;;;5009921;28;20038;-62
2022/07/02 05:18:12;;;;;;;3.50;1.20;;;23.60;53.70;;;;;;5011800;28;20033;-62
2022/07/02 05:20:37;;;;;;;5.65;1.17;;;23.60;53.80;;;;;;5010850;28;20064;-62
2022/07/02 05:23:03;;;;;;;2.80;1.23;;;23.70;53.80;;;;;;5009652;28;20045;-61
2022/07/02 05:25:29;;;;;;;1.45;0.90;;;23.60;53.70;;;;;;5011070;28;20053;-61
2022/07/02 05:27:54;;;;;;;2.97;1.10;;;23.70;53.80;;;;;;5004551;28;20034;-61
2022/07/02 05:30:20;;;;;;;3.00;1.10;;;23.70;53.70;;;;;;5010737;28;20041;-61
2022/07/02 05:32:46;;;;;;;1.50;1.13;;;23.70;53.80;;;;;;5009081;28;20037;-62
2022/07/02 05:35:11;;;;;;;4.07;1.02;;;23.70;53.80;;;;;;5010632;28;20045;-61
2022/07/02 05:37:37;;;;;;;3.20;1.25;;;23.80;53.90;;;;;;5012666;28;20057;-60
2022/07/02 05:40:04;;;;;;;4.55;1.10;;;23.70;53.90;;;;;;5006004;28;20581;-62
2022/07/02 05:42:29;;;;;;;2.15;1.40;;;23.80;53.90;;;;;;5011327;28;20030;-62
2022/07/02 05:44:55;;;;;;;2.83;0.85;;;23.80;53.90;;;;;;5009339;28;20044;-61
2022/07/02 05:47:21;;;;;;;3.85;0.90;;;23.80;54.70;;;;;;5007617;28;20041;-61
2022/07/02 05:49:46;;;;;;;1.20;1.02;;;23.80;54.00;;;;;;5007940;28;20037;-61
2022/07/02 05:52:14;;;;;;;4.43;1.15;;;23.80;54.00;;;;;;5011159;28;20048;-61
2022/07/02 05:54:40;;;;;;;2.28;0.90;;;23.80;54.00;;;;;;5011149;28;20042;-61
2022/07/02 05:57:06;;;;;;;3.65;1.00;;;23.80;53.90;;;;;;5010561;28;20488;-60
2022/07/02 05:59:31;;;;;;;1.63;1.10;;;23.80;54.00;;;;;;5008676;28;20512;-62
2022/07/02 06:01:57;;;;;;;3.78;1.30;;;23.80;54.00;;;;;;5010155;28;20422;-61
2022/07/02 06:04:22;;;;;;;4.05;1.08;;;23.80;54.10;;;;;;5011358;28;20456;-62
2022/07/02 06:09:32;;;;;;;2.75;0.93;;;23.80;54.10;;;;;;5010263;28;20130;-61
2022/07/02 06:11:58;;;;;;;8.02;1.35;;;23.80;54.20;;;;;;5007359;28;20038;-62
2022/07/02 06:14:23;;;;;;;1.75;0.88;;;23.80;54.50;;;;;;5009870;28;20034;-61
2022/07/02 06:16:49;;;;;;;2.53;0.98;;;23.80;54.50;;;;;;5008206;28;20046;-61
2022/07/02 06:19:15;;;;;;;3.50;1.23;;;23.90;54.50;;;;;;5008756;28;20046;-61
2022/07/02 06:21:40;;;;;;;5.38;1.00;;;23.80;54.30;;;;;;5011096;28;20045;-62
2022/07/02 06:24:09;;;;;;;4.13;1.10;;;23.80;54.20;;;;;;5007587;28;20173;-61
2022/07/02 06:26:35;;;;;;;3.38;1.35;;;23.90;54.20;;;;;;5009644;28;20045;-62
2022/07/02 06:29:00;;;;;;;2.92;1.05;;;23.80;54.20;;;;;;5008449;28;20048;-61
2022/07/02 06:31:26;;;;;;;3.72;1.33;;;23.90;54.20;;;;;;5010392;28;20051;-61
2022/07/02 06:33:52;;;;;;;2.58;1.10;;;23.90;54.20;;;;;;5008207;28;20130;-61
2022/07/02 06:36:21;;;;;;;1.92;1.08;;;23.90;54.10;;;;;;5011551;28;20156;-61
2022/07/02 06:38:47;;;;;;;2.30;1.10;;;23.90;54.20;;;;;;5009982;28;20068;-61
2022/07/02 06:42:18;;;;;;;4.57;1.10;;;23.90;54.20;;;;;;5011757;28;20049;-61
2022/07/02 06:43:59;;;;;;;4.78;1.10;;;23.90;54.20;;;;;;5006931;28;20156;-61
2022/07/02 06:46:24;;;;;;;3.38;1.15;;;23.90;54.20;;;;;;5009424;28;20057;-61
2022/07/02 06:48:50;;;;;;;4.15;1.10;;;23.90;54.20;;;;;;5008223;28;20160;-61
2022/07/02 06:51:15;;;;;;;4.00;1.00;;;23.90;54.10;;;;;;5006103;28;20053;-61
2022/07/02 06:53:42;;;;;;;2.05;1.05;;;23.90;54.10;;;;;;5010779;28;20045;-61
2022/07/02 06:56:07;;;;;;;3.42;0.90;;;23.90;54.10;;;;;;5010974;28;20152;-61
2022/07/02 06:58:33;;;;;;;1.70;0.90;;;23.90;54.10;;;;;;5007385;28;20123;-62
2022/07/02 07:00:59;;;;;;;3.00;0.88;;;24.00;54.10;;;;;;5008740;28;20448;-61
2022/07/02 07:03:24;;;;;;;3.38;1.05;;;23.90;54.00;;;;;;5007826;28;20604;-61
2022/07/02 07:05:52;;;;;;;1.55;1.10;;;23.90;53.90;;;;;;5010028;28;20466;-61
2022/07/02 07:08:18;;;;;;;2.97;0.85;;;23.90;53.90;;;;;;5007118;28;20038;-62
2022/07/02 07:10:43;;;;;;;2.20;1.00;;;24.00;53.80;;;;;;5009467;28;20037;-62
2022/07/02 07:13:09;;;;;;;1.63;0.80;;;24.00;53.80;;;;;;5008670;28;20406;-62
2022/07/02 07:15:35;;;;;;;1.65;0.80;;;24.00;53.70;;;;;;5009829;28;20087;-62
2022/07/02 07:18:00;;;;;;;3.17;0.90;;;24.00;53.80;;;;;;4987309;28;20666;-62
2022/07/02 07:20:29;;;;;;;3.83;0.98;;;24.00;53.90;;;;;;5007767;28;20137;-61
2022/07/02 07:22:55;;;;;;;1.15;0.90;;;23.90;53.90;;;;;;5005828;28;20045;-63
2022/07/02 07:25:21;;;;;;;1.00;0.80;;;23.90;53.80;;;;;;5008436;28;20481;-62
2022/07/02 07:27:48;;;;;;;1.40;0.90;;;24.00;53.70;;;;;;5009704;28;20665;-61
2022/07/02 07:30:14;;;;;;;5.05;1.17;;;24.00;53.70;;;;;;4989230;28;20180;-62
2022/07/02 07:32:39;;;;;;;2.00;0.70;;;24.00;53.70;;;;;;5004660;28;20041;-62
2022/07/02 07:35:05;;;;;;;1.55;1.02;;;24.00;53.70;;;;;;5005610;28;20041;-61
2022/07/02 07:37:31;;;;;;;3.92;1.05;;;24.00;53.80;;;;;;5008505;28;20371;-61
2022/07/02 07:39:57;;;;;;;2.88;0.70;;;24.00;54.00;;;;;;5005290;28;20038;-61
2022/07/02 07:42:23;;;;;;;2.22;0.80;;;24.00;54.00;;;;;;5006101;28;20444;-59
2022/07/02 07:44:49;;;;;;;3.50;1.00;;;24.00;54.10;;;;;;5008649;28;20405;-61
2022/07/02 07:47:15;;;;;;;3.90;0.90;;;24.00;53.90;;;;;;5004920;28;20583;-60
2022/07/02 07:49:41;;;;;;;2.35;1.00;;;24.00;53.70;;;;;;5006643;28;20041;-59
2022/07/02 07:52:07;;;;;;;1.08;0.80;;;24.00;53.70;;;;;;5006552;28;20156;-60
2022/07/02 07:54:33;;;;;;;2.53;0.63;;;24.00;53.80;;;;;;5010598;28;20047;-60
2022/07/02 07:56:59;;;;;;;2.83;0.85;;;24.00;54.10;;;;;;5008179;28;20034;-60
2022/07/02 07:59:24;;;;;;;2.60;0.80;;;24.00;54.20;;;;;;5011580;28;20048;-60
2022/07/02 08:01:50;;;;;;;3.17;0.88;;;24.00;54.20;;;;;;5012344;28;20371;-60
2022/07/02 08:04:16;;;;;;;2.15;0.80;;;23.90;54.20;;;;;;5009657;28;20485;-61
2022/07/02 08:06:42;;;;;;;1.75;0.80;;;24.00;54.30;;;;;;5011911;28;20041;-60
2022/07/02 08:09:07;;;;;;;1.88;0.82;;;24.00;54.30;;;;;;5012864;28;20049;-60
2022/07/02 08:11:33;;;;;;;1.52;0.73;;;24.00;55.00;;;;;;5010610;28;20056;-61
2022/07/02 08:13:59;;;;;;;2.03;0.70;;;24.00;54.70;;;;;;5011974;28;20030;-60
2022/07/02 08:16:25;;;;;;;2.42;1.00;;;24.00;54.80;;;;;;5010139;28;20080;-60
2022/07/02 08:18:50;;;;;;;1.77;0.60;;;24.00;54.60;;;;;;5008048;28;20041;-60
2022/07/02 08:21:16;;;;;;;3.08;0.70;;;24.00;54.50;;;;;;5009411;28;20509;-60
2022/07/02 08:23:42;;;;;;;0.93;0.60;;;24.00;54.30;;;;;;5007184;28;20046;-61
2022/07/02 08:26:07;;;;;;;2.25;0.70;;;24.00;54.30;;;;;;5009420;28;20489;-60
2022/07/02 08:28:33;;;;;;;0.93;0.80;;;24.00;54.20;;;;;;5009605;28;20081;-60
2022/07/02 08:30:59;;;;;;;1.63;0.77;;;24.10;55.00;;;;;;5011665;28;20042;-60
2022/07/02 08:33:25;;;;;;;1.10;0.60;;;24.10;54.20;;;;;;5009569;28;20569;-60
2022/07/02 08:35:51;;;;;;;2.65;0.90;;;24.00;54.10;;;;;;5010216;28;20661;-60
2022/07/02 08:38:16;;;;;;;3.45;0.70;;;24.00;54.10;;;;;;5013398;28;20037;-61
2022/07/02 08:40:43;;;;;;;4.35;0.90;;;24.10;54.00;;;;;;5011285;28;20079;-60
2022/07/02 08:43:12;;;;;;;4.68;0.50;;;24.10;54.00;;;;;;5011460;28;20048;-60
2022/07/02 08:45:40;;;;;;;4.78;0.82;;;24.10;54.30;;;;;;5011717;28;20081;-60
2022/07/02 08:48:07;;;;;;;1.63;0.60;;;24.00;53.70;;;;;;5011852;28;20046;-60
2022/07/02 08:50:35;;;;;;;2.63;0.50;;;24.10;53.60;;;;;;5010740;28;20104;-61
2022/07/02 08:53:02;;;;;;;1.23;0.60;;;24.10;53.40;;;;;;5007867;28;20099;-60
2022/07/02 08:55:31;;;;;;;6.30;1.00;;;24.10;53.30;;;;;;5010387;28;20045;-61
2022/07/02 08:57:59;;;;;;;4.93;0.70;;;24.10;53.40;;;;;;5007057;28;20103;-59
2022/07/02 09:00:25;;;;;;;1.73;0.60;;;24.10;53.40;;;;;;5010762;28;20038;-61
2022/07/02 09:02:53;;;;;;;0.70;0.45;;;24.10;53.50;;;;;;5009571;28;20042;-61
2022/07/02 09:05:21;;;;;;;3.15;0.63;;;24.10;53.50;;;;;;5007341;28;20034;-60
2022/07/02 09:07:47;;;;;;;0.50;0.50;;;24.10;53.40;;;;;;5007793;28;20038;-61
2022/07/02 09:10:13;;;;;;;1.02;0.50;;;24.10;53.30;;;;;;5010109;28;20155;-62
2022/07/02 09:12:40;;;;;;;4.55;1.20;;;24.10;53.30;;;;;;5009391;28;20064;-60
2022/07/02 09:15:07;;;;;;;1.50;0.60;;;24.10;53.30;;;;;;5009696;28;20038;-60
2022/07/02 09:17:33;;;;;;;2.40;0.85;;;24.10;53.40;;;;;;5012584;28;20044;-60
2022/07/02 09:19:59;;;;;;;4.60;0.70;;;24.10;53.20;;;;;;5011078;28;20585;-60
2022/07/02 09:22:36;;;;;;;1.73;0.70;;;24.10;53.20;;;;;;5011301;28;20069;-60
2022/07/02 09:25:13;;;;;;;2.05;0.80;;;24.10;53.00;;;;;;5013712;28;20038;-60
2022/07/02 09:27:39;;;;;;;1.63;0.60;;;24.10;53.00;;;;;;5028753;28;20081;-60
2022/07/02 09:30:08;;;;;;;2.53;0.93;;;24.10;53.00;;;;;;5008882;28;20052;-60
2022/07/02 09:32:39;;;;;;;2.63;0.80;;;24.10;52.80;;;;;;5010299;28;20048;-59
2022/07/02 09:35:05;;;;;;;3.13;0.57;;;24.10;52.70;;;;;;5010730;28;20088;-59
2022/07/02 09:37:31;;;;;;;4.82;1.10;;;24.10;52.80;;;;;;5009571;28;20048;-62
2022/07/02 09:40:00;;;;;;;4.72;1.00;;;24.10;52.60;;;;;;5008966;28;20474;-61
2022/07/02 09:42:28;;;;;;;1.38;0.77;;;24.00;52.50;;;;;;5012996;28;20144;-59
2022/07/02 09:44:55;;;;;;;4.32;0.90;;;24.10;52.50;;;;;;5010782;28;20041;-59
2022/07/02 09:47:36;;;;;;;2.15;1.00;;;24.00;52.20;;;;;;5021917;28;20722;-60
2022/07/02 09:50:12;;;;;;;3.28;1.10;;;24.00;52.20;;;;;;5010569;28;20048;-60
2022/07/02 09:52:48;;;;;;;4.00;1.17;;;24.00;52.20;;;;;;5008637;28;20379;-59
2022/07/02 09:55:28;;;;;;;2.72;1.08;;;24.00;52.20;;;;;;5008534;28;20386;-59
2022/07/02 09:57:56;;;;;;;4.00;1.40;;;24.00;52.20;;;;;;5010537;28;20038;-60
2022/07/02 10:00:24;;;;;;;4.57;1.30;;;24.00;52.30;;;;;;5008699;28;20041;-60
2022/07/02 10:02:52;;;;;;;2.88;0.95;;;24.00;52.20;;;;;;5009331;28;20490;-59
2022/07/02 10:05:24;;;;;;;2.10;0.80;;;24.00;52.10;;;;;;5011548;28;20064;-60
2022/07/02 10:07:52;;;;;;;3.28;0.90;;;24.00;51.90;;;;;;5009629;28;21018;-60
2022/07/02 10:10:19;;;;;;;3.60;1.15;;;24.00;51.80;;;;;;5010175;28;20033;-59
2022/07/02 10:12:45;;;;;;;3.13;1.00;;;24.00;51.70;;;;;;5011614;28;20528;-59
2022/07/02 10:15:15;;;;;;;4.30;1.00;;;24.00;51.60;;;;;;5005828;28;20064;-60
2022/07/02 10:17:42;;;;;;;2.00;0.85;;;24.00;51.50;;;;;;5007498;28;20044;-59
2022/07/02 10:20:09;;;;;;;4.53;1.15;;;24.00;51.60;;;;;;5008460;28;20890;-60
2022/07/02 10:22:35;;;;;;;1.77;0.90;;;24.00;51.50;;;;;;5024499;28;21826;-60
2022/07/02 10:25:03;;;;;;;3.65;0.88;;;24.00;51.60;;;;;;5009832;28;20042;-60
2022/07/02 10:27:30;;;;;;;1.67;0.90;;;24.00;51.70;;;;;;5008216;28;20112;-59
2022/07/02 10:29:57;;;;;;;2.63;0.88;;;24.00;51.80;;;;;;5008436;28;20385;-61
2022/07/02 10:32:38;;;;;;;0.65;0.63;;;24.00;51.80;;;;;;5009320;28;20041;-59
2022/07/02 10:35:14;;;;;;;5.28;1.17;;;24.00;52.00;;;;;;5010376;28;20414;-59
2022/07/02 10:37:41;;;;;;;7.05;1.70;;;24.00;52.30;;;;;;5011102;28;20125;-60
2022/07/02 10:40:07;;;;;;;45.00;11.32;;;24.00;52.70;;;;;;5011765;28;20046;-62
2022/07/02 10:42:48;;;;;;;26.55;8.32;;;24.00;52.60;;;;;;4995011;28;20038;-59
2022/07/02 10:45:22;;;;;;;19.98;6.32;;;24.00;52.70;;;;;;5023464;28;20132;-59
2022/07/02 10:47:54;;;;;;;11.20;4.18;;;24.00;52.60;;;;;;5009197;28;20049;-60
2022/07/02 10:50:25;;;;;;;12.52;3.83;;;24.00;52.40;;;;;;5005797;28;20137;-60
2022/07/02 10:52:51;;;;;;;12.13;3.88;;;24.00;52.30;;;;;;5010051;28;20814;-60
2022/07/02 10:55:25;;;;;;;12.18;3.50;;;24.00;52.00;;;;;;5009296;28;20064;-59
2022/07/02 10:57:58;;;;;;;11.05;3.45;;;24.00;52.50;;;;;;5009686;28;20052;-60
2022/07/02 11:00:35;;;;;;;8.20;2.97;;;24.00;51.60;;;;;;5008932;28;20101;-60
2022/07/02 11:03:23;;;;;;;5.88;2.40;;;24.00;51.30;;;;;;5010604;28;20180;-60
2022/07/02 11:06:03;;;;;;;7.43;2.13;;;24.00;50.80;;;;;;5007278;28;20034;-60
2022/07/02 11:08:44;;;;;;;7.75;2.30;;;24.00;50.70;;;;;;5010367;28;20088;-60
2022/07/02 11:11:14;;;;;;;;;;;24.00;50.70;;;;;;5007399;28;20045;-59
2022/07/02 11:13:49;;;;;;;7.00;2.13;;;24.00;50.20;;;;;;5008622;28;19921;-59
2022/07/02 11:16:26;;;;;;;4.85;1.88;;;24.00;50.40;;;;;;5007195;28;20171;-59
2022/07/02 11:18:53;;;;;;;4.80;1.40;;;24.00;50.20;;;;;;5007695;28;20046;-59
2022/07/02 11:21:22;;;;;;;4.22;1.42;;;24.00;50.10;;;;;;5005394;28;20062;-59
2022/07/02 11:23:49;;;;;;;3.03;1.00;;;24.00;50.00;;;;;;5008274;28;20046;-60
2022/07/02 11:26:28;;;;;;;4.40;1.30;;;24.00;49.20;;;;;;5007028;28;20601;-60
2022/07/02 11:28:54;;;;;;;3.00;1.27;;;24.00;49.00;;;;;;5006735;28;20037;-59
2022/07/02 11:31:23;;;;;;;4.22;1.25;;;23.90;49.00;;;;;;5008593;28;20314;-60
2022/07/02 11:33:51;;;;;;;3.75;1.30;;;24.00;49.00;;;;;;5012464;28;20041;-59
2022/07/02 11:36:18;;;;;;;3.13;1.35;;;24.00;49.00;;;;;;5006590;28;20438;-60
2022/07/02 11:38:45;;;;;;;3.85;0.90;;;24.00;48.90;;;;;;5007957;28;20041;-60
2022/07/02 11:41:19;;;;;;;2.42;0.98;;;24.00;48.90;;;;;;5008858;28;20042;-60
2022/07/02 11:43:50;;;;;;;4.63;1.05;;;24.00;48.80;;;;;;5005965;28;20096;-60
2022/07/02 11:46:25;;;;;;;3.70;1.10;;;24.00;48.80;;;;;;5007397;28;20108;-60
2022/07/02 11:48:51;;;;;;;1.55;0.93;;;24.00;48.60;;;;;;5006695;28;20038;-60
2022/07/02 11:51:21;;;;;;;2.40;0.95;;;24.00;48.50;;;;;;5009577;28;20076;-59
2022/07/02 11:54:03;;;;;;;1.88;1.15;;;24.00;48.50;;;;;;5007783;28;20115;-60
2022/07/02 11:56:31;;;;;;;2.20;0.85;;;24.00;48.50;;;;;;5026904;28;20552;-59
2022/07/02 11:58:57;;;;;;;3.70;0.75;;;24.00;48.70;;;;;;5006591;28;20116;-59
2022/07/02 12:01:31;;;;;;;3.00;0.80;;;24.00;48.60;;;;;;5008744;28;20115;-59
2022/07/02 12:04:00;;;;;;;1.13;0.80;;;24.00;48.50;;;;;;5009890;28;20041;-59
2022/07/02 12:06:27;;;;;;;1.50;0.50;;;24.00;48.30;;;;;;5010522;28;20038;-59
2022/07/02 12:08:54;;;;;;;0.98;0.68;;;24.00;48.10;;;;;;5010331;28;20417;-60
2022/07/02 12:11:22;;;;;;;1.80;0.88;;;24.00;47.90;;;;;;5008781;28;20037;-60
2022/07/02 12:13:48;;;;;;;2.30;0.80;;;24.00;47.60;;;;;;5010207;28;20029;-59
2022/07/02 12:16:16;;;;;;;1.10;0.70;;;24.00;47.50;;;;;;5008054;28;20037;-59
2022/07/02 12:18:43;;;;;;;2.75;0.70;;;24.00;47.30;;;;;;5011176;28;20030;-59
2022/07/02 12:21:18;;;;;;;1.70;0.77;;;24.00;47.40;;;;;;5010221;28;20164;-60
2022/07/02 12:23:48;;;;;;;1.42;0.63;;;24.00;47.20;;;;;;5009682;28;20038;-60
2022/07/02 12:26:27;;;;;;;1.17;0.60;;;24.00;47.30;;;;;;5007165;28;20088;-60
2022/07/02 12:31:51;;;;;;;1.13;0.70;;;24.00;47.40;;;;;;4993853;28;20049;-60
2022/07/02 12:34:18;;;;;;;1.75;0.70;;;24.00;47.40;;;;;;5011488;28;20526;-60
2022/07/02 12:36:51;;;;;;;1.65;0.70;;;24.00;47.50;;;;;;5009046;28;20060;-60
2022/07/02 12:39:17;;;;;;;1.75;0.90;;;24.00;47.50;;;;;;5009559;28;20125;-60
2022/07/02 12:41:42;;;;;;;2.95;0.70;;;24.00;47.50;;;;;;5010631;28;20124;-60
2022/07/02 12:44:16;;;;;;;1.83;0.77;;;24.00;47.30;;;;;;5012617;28;20394;-60
2022/07/02 12:46:47;;;;;;;1.95;0.68;;;24.00;47.30;;;;;;5008104;28;20076;-60
2022/07/02 12:49:18;;;;;;;1.75;0.60;;;24.00;47.00;;;;;;5009700;28;20045;-60
2022/07/02 12:52:01;;;;;;;1.33;0.60;;;24.00;47.10;;;;;;5010415;28;20485;-60
2022/07/02 12:54:34;;;;;;;1.33;0.60;;;24.00;47.10;;;;;;5014409;28;20038;-60
2022/07/02 12:57:14;;;;;;;2.47;0.77;;;24.00;47.30;;;;;;5012629;28;20041;-59